createdAt,value
2018-05-16T00:09:17.632Z,0.0
2018-05-16T00:19:31.524Z,0.0
2018-05-16T00:29:42.946Z,0.0
2018-05-16T00:39:57.250Z,0.0
2018-05-16T00:50:09.672Z,0.0
2018-05-16T01:00:42.038Z,0.0
2018-05-16T01:11:17.388Z,0.0
2018-05-16T01:21:43.108Z,0.0
2018-05-16T01:32:29.014Z,0.0
2018-05-16T01:42:40.738Z,0.0
2018-05-16T01:52:52.780Z,0.0
2018-05-16T02:03:51.597Z,0.0
2018-05-16T02:15:11.610Z,0.0
2018-05-16T02:25:25.755Z,0.0
2018-05-16T02:35:40.130Z,0.0
2018-05-16T02:46:28.292Z,0.0
2018-05-16T02:56:43.278Z,0.0
2018-05-16T03:06:55.445Z,4.0
2018-05-16T03:17:40.762Z,20.0
2018-05-16T03:28:37.834Z,72.0
2018-05-16T03:38:52.387Z,188.0
2018-05-16T03:49:18.289Z,388.0
2018-05-16T03:59:46.598Z,704.0
2018-05-16T04:10:07.769Z,1024.0
2018-05-16T04:20:22.001Z,1340.0
2018-05-16T04:30:34.374Z,1648.0
2018-05-16T04:51:41.495Z,2168.0
2018-05-16T05:02:51.482Z,2292.0
2018-05-16T05:13:49.896Z,2872.0
2018-05-16T05:24:07.949Z,2352.0
2018-05-16T05:34:29.857Z,2772.0
2018-05-16T05:45:25.042Z,4140.0
2018-05-16T05:55:39.228Z,5276.0
2018-05-16T06:06:33.178Z,5892.0
2018-05-16T06:18:09.832Z,4800.0
2018-05-16T06:30:04.978Z,5488.0
2018-05-16T06:41:46.580Z,4988.0
2018-05-16T06:52:01.743Z,6064.0
2018-05-16T07:02:17.525Z,3800.0
2018-05-16T07:14:15.753Z,5284.0
2018-05-16T07:24:30.616Z,7880.0
2018-05-16T07:36:02.619Z,6480.0
2018-05-16T07:47:52.241Z,6316.0
2018-05-16T07:58:06.284Z,10560.0
2018-05-16T08:08:20.856Z,8756.0
2018-05-16T08:18:34.248Z,7652.0
2018-05-16T08:28:50.741Z,8860.0
2018-05-16T08:39:05.855Z,8272.0
2018-05-16T08:49:22.626Z,9864.0
2018-05-16T09:00:42.322Z,10520.0
2018-05-16T09:12:08.984Z,10784.0
2018-05-16T09:22:57.401Z,39200.0
2018-05-16T09:34:18.130Z,35360.0
2018-05-16T09:45:21.838Z,32416.0
2018-05-16T09:56:35.872Z,21536.0
2018-05-16T10:06:51.486Z,36928.0
2018-05-16T10:39:12.127Z,26624.0
2018-05-16T10:50:04.102Z,53952.0
2018-05-16T11:00:59.927Z,20512.0
2018-05-16T11:11:23.540Z,52032.0
2018-05-16T11:22:07.135Z,48352.0
2018-05-16T11:43:01.112Z,48800.0
2018-05-16T11:53:46.542Z,46560.0
2018-05-16T12:04:31.955Z,34656.0
2018-05-16T12:15:21.287Z,50944.0
2018-05-16T12:25:38.134Z,48352.0
2018-05-16T12:36:26.943Z,30464.0
2018-05-16T12:46:41.546Z,27936.0
2018-05-16T12:56:57.764Z,40864.0
2018-05-16T13:07:47.119Z,36672.0
2018-05-16T13:28:47.596Z,18368.0
2018-05-16T13:39:48.682Z,27296.0
2018-05-16T13:50:07.523Z,19808.0
2018-05-16T14:00:21.698Z,39744.0
2018-05-16T14:10:41.224Z,28448.0
2018-05-16T14:20:56.237Z,25568.0
2018-05-16T14:31:42.744Z,22592.0
2018-05-16T14:42:55.744Z,20512.0
2018-05-16T14:53:47.192Z,12136.0
2018-05-16T15:14:41.113Z,10560.0
2018-05-16T15:25:48.060Z,10496.0
2018-05-16T15:36:02.362Z,7104.0
2018-05-16T15:46:20.658Z,9580.0
2018-05-16T15:57:11.158Z,8720.0
2018-05-16T16:21:12.076Z,7424.0
2018-05-16T16:32:20.543Z,4488.0
2018-05-16T16:43:48.429Z,4156.0
2018-05-16T17:16:44.415Z,5596.0
2018-05-16T17:30:19.274Z,3372.0
2018-05-16T18:00:48.932Z,2404.0
2018-05-16T19:16:24.291Z,96.0
2018-05-16T19:42:16.921Z,12.0
2018-05-16T19:55:54.548Z,4.0
2018-05-16T20:22:43.811Z,0.0
2018-05-16T20:50:56.230Z,0.0
2018-05-16T21:02:51.282Z,0.0
2018-05-16T21:14:39.930Z,0.0
2018-05-16T21:26:41.943Z,0.0
2018-05-16T21:39:31.503Z,0.0
2018-05-16T21:49:46.644Z,0.0
2018-05-16T22:02:23.548Z,0.0
2018-05-16T22:28:42.990Z,0.0
2018-05-16T22:57:43.337Z,0.0
2018-05-16T23:07:57.934Z,0.0
2018-05-16T23:18:12.362Z,0.0
2018-05-16T23:30:59.971Z,0.0
2018-05-16T23:47:33.749Z,0.0
